Time;durP1;ratioP1;P1;durP2;ratioP2;P2;SDS_P1;SDS_P2;PMS_P1;PMS_P2;Temp;Humidity;BMP_temperature;BMP_pressure;BME280_temperature;BME280_humidity;BME280_pressure;Samples;Min_cycle;Max_cycle;Signal;HPM_P1;HPM_P2
2020/12/20 00:00:34;;;;;;;10.68;5.50;;;11.00;99.90;;;;;;5004329;28;20030;-77
2020/12/20 00:03:00;;;;;;;11.90;5.97;;;11.60;99.90;;;;;;5007494;28;20033;-78
2020/12/20 00:05:26;;;;;;;16.40;7.72;;;11.00;99.90;;;;;;5008800;28;20559;-79
2020/12/20 00:07:53;;;;;;;10.95;5.63;;;11.00;99.90;;;;;;5005620;28;20034;-79
2020/12/20 00:10:21;;;;;;;10.10;6.00;;;12.30;99.90;;;;;;5007976;28;20412;-77
2020/12/20 00:12:47;;;;;;;11.85;6.40;;;10.90;99.90;;;;;;5006431;28;20046;-77
2020/12/20 00:15:13;;;;;;;9.07;6.15;;;11.00;99.90;;;;;;5005134;28;20030;-77
2020/12/20 00:17:39;;;;;;;10.02;5.65;;;11.00;99.90;;;;;;5009454;28;20057;-76
2020/12/20 00:20:07;;;;;;;11.93;6.07;;;12.80;99.90;;;;;;5005092;28;20029;-77
2020/12/20 00:22:33;;;;;;;13.70;6.90;;;11.00;99.90;;;;;;5004157;28;20058;-76
2020/12/20 00:24:58;;;;;;;12.95;6.93;;;10.90;99.90;;;;;;5005362;28;20057;-77
2020/12/20 00:27:24;;;;;;;11.90;6.40;;;10.90;99.90;;;;;;5003506;28;20041;-80
2020/12/20 00:29:51;;;;;;;12.63;6.35;;;10.90;99.90;;;;;;5011982;28;20032;-76
2020/12/20 00:32:17;;;;;;;10.57;6.70;;;12.80;99.90;;;;;;5007371;28;20029;-77
2020/12/20 00:34:43;;;;;;;14.02;6.95;;;10.90;99.90;;;;;;5006447;28;20096;-77
2020/12/20 00:37:09;;;;;;;9.45;5.95;;;11.00;99.90;;;;;;5000511;28;20034;-78
2020/12/20 00:39:35;;;;;;;13.45;6.07;;;10.90;99.90;;;;;;5010491;28;20045;-80
2020/12/20 00:42:03;;;;;;;16.17;8.85;;;10.90;99.90;;;;;;5007171;28;20045;-80
2020/12/20 00:44:29;;;;;;;12.60;7.00;;;11.80;99.90;;;;;;5007312;28;20057;-79
2020/12/20 00:46:57;;;;;;;10.38;6.07;;;11.00;99.90;;;;;;5009416;28;20132;-78
2020/12/20 00:49:24;;;;;;;11.25;6.70;;;10.90;99.90;;;;;;5009391;28;20044;-78
2020/12/20 00:51:49;;;;;;;8.27;5.40;;;10.90;99.90;;;;;;5011452;28;20037;-78
2020/12/20 00:54:15;;;;;;;15.32;6.30;;;10.90;99.90;;;;;;5008170;28;20041;-78
2020/12/20 00:56:42;;;;;;;9.43;5.95;;;12.30;99.90;;;;;;4992711;28;20038;-79
2020/12/20 00:59:07;;;;;;;13.38;6.60;;;10.90;99.90;;;;;;5025033;28;20042;-78
2020/12/20 01:01:33;;;;;;;10.43;6.10;;;10.90;99.90;;;;;;5009164;28;20045;-78
2020/12/20 01:03:59;;;;;;;11.52;6.20;;;10.30;99.90;;;;;;5011295;28;20039;-78
2020/12/20 01:06:25;;;;;;;10.88;5.88;;;13.70;99.90;;;;;;4989850;28;20050;-78
2020/12/20 01:08:51;;;;;;;11.07;7.07;;;10.90;99.90;;;;;;5007549;28;20048;-78
2020/12/20 01:11:18;;;;;;;11.20;6.45;;;10.80;99.90;;;;;;5009386;28;20480;-78
2020/12/20 01:13:51;;;;;;;10.73;6.10;;;10.90;99.90;;;;;;5011430;28;20048;-78
2020/12/20 01:16:19;;;;;;;11.77;6.90;;;10.90;99.90;;;;;;5006562;28;20111;-78
2020/12/20 01:18:45;;;;;;;12.32;6.55;;;10.90;99.90;;;;;;5009532;28;20044;-80
2020/12/20 01:21:12;;;;;;;11.23;6.20;;;10.90;99.90;;;;;;5004598;28;20042;-78
2020/12/20 01:23:38;;;;;;;9.30;6.00;;;10.90;99.90;;;;;;5012025;28;20029;-78
2020/12/20 01:26:04;;;;;;;14.30;6.35;;;11.00;99.90;;;;;;4996268;28;20569;-78
2020/12/20 01:28:33;;;;;;;15.15;6.55;;;11.80;99.90;;;;;;5008701;28;20081;-78
2020/12/20 01:31:06;;;;;;;12.75;6.50;;;10.80;99.90;;;;;;5027259;28;20037;-78
2020/12/20 01:33:34;;;;;;;12.23;7.03;;;10.90;99.90;;;;;;5024755;28;20038;-79
2020/12/20 01:36:09;;;;;;;11.40;6.18;;;12.30;99.90;;;;;;5010934;28;20021;-78
2020/12/20 01:38:35;;;;;;;13.40;6.47;;;10.90;99.90;;;;;;5011491;28;20038;-78
2020/12/20 01:41:01;;;;;;;11.57;6.18;;;10.90;99.90;;;;;;5011557;28;20068;-78
2020/12/20 01:43:59;;;;;;;11.65;6.13;;;10.90;99.90;;;;;;5006338;28;20073;-77
2020/12/20 01:46:24;;;;;;;11.90;5.85;;;10.90;99.90;;;;;;5021329;28;20034;-80
2020/12/20 01:48:52;;;;;;;11.07;5.93;;;11.20;99.90;;;;;;5013603;28;20080;-78
2020/12/20 01:51:18;;;;;;;11.68;6.20;;;10.90;99.90;;;;;;5014730;28;20042;-78
2020/12/20 01:53:45;;;;;;;13.68;6.75;;;11.00;99.90;;;;;;5012066;28;20038;-78
2020/12/20 01:56:10;;;;;;;11.38;5.60;;;11.00;99.90;;;;;;5012100;28;20019;-78
2020/12/20 01:58:39;;;;;;;9.57;5.35;;;12.10;99.90;;;;;;5012602;28;20030;-77
2020/12/20 02:01:06;;;;;;;9.50;5.53;;;11.00;99.90;;;;;;5026372;28;20042;-78
2020/12/20 02:03:32;;;;;;;11.15;5.00;;;12.60;99.90;;;;;;5013838;28;20140;-78
2020/12/20 02:05:58;;;;;;;11.82;5.78;;;11.10;99.90;;;;;;5013109;28;20400;-76
2020/12/20 02:08:25;;;;;;;9.20;4.55;;;11.10;99.90;;;;;;5011869;28;20034;-76
2020/12/20 02:11:23;;;;;;;13.55;5.95;;;12.40;99.90;;;;;;5010358;28;20495;-78
2020/12/20 02:13:51;;;;;;;10.25;4.13;;;11.30;99.90;;;;;;4980655;28;20538;-78
2020/12/20 02:16:19;;;;;;;9.13;4.60;;;11.40;99.90;;;;;;5010173;28;20041;-78
2020/12/20 02:18:46;;;;;;;9.57;5.07;;;11.30;99.90;;;;;;5028354;28;20065;-78
2020/12/20 02:21:16;;;;;;;8.73;4.95;;;11.30;99.90;;;;;;5013527;28;20567;-78
2020/12/20 02:23:43;;;;;;;9.38;4.95;;;11.30;99.90;;;;;;5010529;28;20038;-78
2020/12/20 02:26:10;;;;;;;8.30;4.50;;;11.80;99.90;;;;;;5012655;28;20491;-77
2020/12/20 02:28:36;;;;;;;7.50;4.90;;;11.20;99.90;;;;;;5011555;28;20111;-78
2020/12/20 02:31:02;;;;;;;7.68;4.57;;;11.20;99.90;;;;;;5011625;28;20134;-78
2020/12/20 02:33:27;;;;;;;8.90;5.50;;;11.10;99.90;;;;;;5011639;28;20128;-78
2020/12/20 02:35:53;;;;;;;9.13;5.00;;;11.10;99.90;;;;;;5009698;28;20088;-78
2020/12/20 02:38:19;;;;;;;10.73;5.10;;;13.00;99.90;;;;;;5006457;28;20046;-79
2020/12/20 02:40:44;;;;;;;11.90;5.30;;;11.10;99.90;;;;;;5010890;28;20045;-78
2020/12/20 02:43:10;;;;;;;10.07;4.93;;;11.10;99.90;;;;;;4996044;28;20046;-78
2020/12/20 02:45:36;;;;;;;8.85;5.25;;;11.10;99.90;;;;;;4991489;28;20449;-78
2020/12/20 02:48:02;;;;;;;8.65;5.28;;;11.10;99.90;;;;;;5013164;28;20120;-78
2020/12/20 02:50:27;;;;;;;9.68;5.35;;;11.00;99.90;;;;;;4994042;28;20069;-78
2020/12/20 02:52:53;;;;;;;12.20;5.63;;;11.00;99.90;;;;;;5011187;28;20038;-78
2020/12/20 02:55:18;;;;;;;9.15;5.82;;;11.00;99.90;;;;;;4990371;28;20133;-79
2020/12/20 02:57:44;;;;;;;9.57;5.45;;;11.00;99.90;;;;;;5007586;28;20089;-78
2020/12/20 03:00:09;;;;;;;10.48;5.40;;;10.90;99.90;;;;;;5012340;28;20033;-78
2020/12/20 03:02:35;;;;;;;9.38;5.88;;;10.90;99.90;;;;;;5021455;28;20557;-77
2020/12/20 03:05:01;;;;;;;9.25;5.57;;;11.00;99.90;;;;;;5010804;28;20037;-77
2020/12/20 03:07:27;;;;;;;10.02;5.50;;;10.90;99.90;;;;;;5020440;28;20053;-80
2020/12/20 03:09:53;;;;;;;12.07;5.95;;;11.50;99.90;;;;;;5009643;28;20057;-77
2020/12/20 03:12:19;;;;;;;10.45;5.65;;;11.50;99.90;;;;;;5010601;28;20029;-79
2020/12/20 03:14:45;;;;;;;11.55;6.32;;;10.90;99.90;;;;;;5007637;28;20044;-79
2020/12/20 03:17:11;;;;;;;14.13;6.53;;;11.10;99.90;;;;;;5011340;28;20042;-77
2020/12/20 03:19:37;;;;;;;14.88;6.43;;;11.00;99.90;;;;;;4977456;28;20499;-77
2020/12/20 03:22:03;;;;;;;11.85;5.95;;;10.90;99.90;;;;;;5013822;28;20300;-78
2020/12/20 03:24:28;;;;;;;10.50;6.00;;;12.20;99.90;;;;;;4994777;28;20077;-77
2020/12/20 03:26:54;;;;;;;8.70;5.72;;;12.20;99.90;;;;;;4992006;28;20056;-77
2020/12/20 03:29:19;;;;;;;10.38;5.85;;;10.90;99.90;;;;;;5005169;28;20060;-78
2020/12/20 03:31:45;;;;;;;11.77;6.07;;;10.90;99.90;;;;;;4994804;28;20109;-78
2020/12/20 03:34:11;;;;;;;9.80;6.40;;;10.90;99.90;;;;;;4990492;28;20054;-77
2020/12/20 03:36:36;;;;;;;14.70;6.57;;;10.90;99.90;;;;;;4993114;28;20560;-76
2020/12/20 03:39:03;;;;;;;10.85;5.90;;;10.90;99.90;;;;;;5010545;28;20069;-78
2020/12/20 03:41:28;;;;;;;11.88;5.82;;;10.90;99.90;;;;;;5006332;28;20033;-78
2020/12/20 03:43:54;;;;;;;10.10;6.10;;;11.30;99.90;;;;;;5012398;28;20037;-78
2020/12/20 03:46:19;;;;;;;11.75;6.35;;;12.20;99.90;;;;;;5010945;28;20045;-78
2020/12/20 03:48:45;;;;;;;10.10;5.97;;;11.10;99.90;;;;;;5009092;28;20503;-78
2020/12/20 03:51:11;;;;;;;10.65;5.78;;;;;;;;;;5007126;28;20423;-78
2020/12/20 03:53:37;;;;;;;11.15;6.28;;;10.90;99.90;;;;;;5023010;28;20057;-78
2020/12/20 03:56:04;;;;;;;10.70;5.32;;;10.90;99.90;;;;;;4995277;28;20133;-77
2020/12/20 03:58:30;;;;;;;13.52;6.00;;;10.90;99.90;;;;;;5008996;28;20033;-78
2020/12/20 04:00:55;;;;;;;9.30;6.15;;;12.10;99.90;;;;;;5009366;28;20103;-78
2020/12/20 04:03:21;;;;;;;8.30;6.00;;;10.90;99.90;;;;;;4994361;28;20050;-78
2020/12/20 04:05:46;;;;;;;11.48;6.38;;;10.90;99.90;;;;;;4995423;28;20030;-77
2020/12/20 04:08:12;;;;;;;11.18;6.25;;;10.10;99.90;;;;;;5012318;28;20057;-78
2020/12/20 04:10:38;;;;;;;14.38;6.25;;;10.80;99.90;;;;;;5007863;28;20117;-80
2020/12/20 04:13:04;;;;;;;13.10;6.47;;;;;;;;;;5002257;28;20031;-78
2020/12/20 04:15:32;;;;;;;11.48;6.80;;;10.80;99.90;;;;;;5008662;28;20105;-78
2020/12/20 04:17:58;;;;;;;10.82;6.15;;;10.80;99.90;;;;;;5006731;28;20092;-78
2020/12/20 04:20:23;;;;;;;11.60;6.60;;;10.80;99.90;;;;;;5006179;28;20041;-78
2020/12/20 04:22:49;;;;;;;13.05;6.72;;;10.90;99.90;;;;;;5010328;28;20029;-78
2020/12/20 04:25:15;;;;;;;12.35;6.88;;;10.80;99.90;;;;;;5007739;28;20121;-77
2020/12/20 04:27:40;;;;;;;13.13;7.38;;;10.80;99.90;;;;;;5007373;28;20415;-78
2020/12/20 04:30:06;;;;;;;13.50;7.10;;;10.80;99.90;;;;;;5010424;28;20103;-77
2020/12/20 04:32:32;;;;;;;14.68;7.47;;;10.80;99.90;;;;;;5011853;28;20120;-77
2020/12/20 04:34:58;;;;;;;12.77;6.75;;;10.70;99.90;;;;;;5011667;28;20038;-77
2020/12/20 04:37:23;;;;;;;16.27;7.47;;;10.80;99.90;;;;;;4989256;28;20049;-78
2020/12/20 04:39:49;;;;;;;13.02;7.07;;;10.80;99.90;;;;;;4994810;28;20038;-79
2020/12/20 04:42:15;;;;;;;12.63;6.57;;;;;;;;;;4989642;28;20041;-79
2020/12/20 04:44:42;;;;;;;11.40;7.00;;;10.70;99.90;;;;;;5005623;28;20112;-78
2020/12/20 04:47:07;;;;;;;10.63;6.75;;;10.80;99.90;;;;;;4998158;28;20050;-78
2020/12/20 04:49:34;;;;;;;9.93;6.90;;;10.80;99.90;;;;;;4998212;28;20128;-78
2020/12/20 04:52:01;;;;;;;12.27;6.82;;;10.80;99.90;;;;;;4998715;28;20045;-80
2020/12/20 04:54:27;;;;;;;14.40;6.88;;;10.80;99.90;;;;;;5000893;28;20027;-78
2020/12/20 04:56:53;;;;;;;11.95;6.47;;;10.80;99.90;;;;;;5006176;28;20070;-79
2020/12/20 04:59:19;;;;;;;13.05;7.28;;;10.80;99.90;;;;;;5025159;28;20403;-78
2020/12/20 05:01:45;;;;;;;12.88;7.13;;;10.80;99.90;;;;;;5018392;28;20046;-79
2020/12/20 05:04:11;;;;;;;18.80;7.75;;;10.80;99.90;;;;;;4999867;28;20046;-78
2020/12/20 05:06:37;;;;;;;10.05;6.78;;;10.80;99.90;;;;;;5009845;28;20118;-78
2020/12/20 05:09:03;;;;;;;13.60;6.72;;;11.50;99.90;;;;;;5008140;28;20072;-78
2020/12/20 05:11:41;;;;;;;12.98;6.68;;;10.80;99.90;;;;;;4987940;28;20042;-78
2020/12/20 05:14:08;;;;;;;10.68;6.32;;;10.90;99.90;;;;;;5005402;28;20065;-78
2020/12/20 05:16:38;;;;;;;11.43;6.55;;;10.80;99.90;;;;;;5016374;28;20041;-79
2020/12/20 05:19:05;;;;;;;14.93;6.57;;;11.20;99.90;;;;;;5007591;28;20029;-79
2020/12/20 05:21:31;;;;;;;11.23;6.60;;;10.80;99.90;;;;;;5011133;28;20104;-79
2020/12/20 05:23:58;;;;;;;9.77;6.50;;;10.80;99.90;;;;;;5011717;28;20458;-79
2020/12/20 05:26:33;;;;;;;11.57;6.53;;;10.80;99.90;;;;;;5021996;28;20029;-79
2020/12/20 05:29:10;;;;;;;14.57;6.93;;;10.80;99.90;;;;;;5009204;28;20101;-78
2020/12/20 05:31:36;;;;;;;12.65;6.93;;;10.70;99.90;;;;;;5011438;28;20104;-79
2020/12/20 05:34:03;;;;;;;11.55;7.55;;;10.80;99.90;;;;;;5006960;28;20039;-81
2020/12/20 05:36:29;;;;;;;11.63;6.90;;;12.00;99.90;;;;;;5006270;28;20061;-80
2020/12/20 05:39:14;;;;;;;11.40;6.68;;;12.50;99.90;;;;;;5003134;28;20038;-79
2020/12/20 05:41:40;;;;;;;11.93;7.22;;;10.70;99.90;;;;;;4999527;28;20432;-80
2020/12/20 05:44:23;;;;;;;12.73;7.72;;;10.80;99.90;;;;;;5004590;28;20362;-79
2020/12/20 05:46:50;;;;;;;12.98;6.97;;;10.70;99.90;;;;;;5005329;28;21621;-80
2020/12/20 05:49:17;;;;;;;13.98;8.10;;;10.70;99.90;;;;;;5000537;28;20034;-79
2020/12/20 05:52:09;;;;;;;12.52;7.60;;;10.60;99.90;;;;;;5000519;28;20483;-78
2020/12/20 05:54:37;;;;;;;10.95;7.68;;;10.60;99.90;;;;;;5011695;28;20030;-79
2020/12/20 05:57:17;;;;;;;10.70;6.88;;;10.60;99.90;;;;;;5005836;28;20129;-78
2020/12/20 05:59:45;;;;;;;13.80;7.80;;;10.70;99.90;;;;;;5005051;28;20030;-76
2020/12/20 06:02:12;;;;;;;18.50;7.82;;;10.70;99.90;;;;;;4997253;28;20038;-78
2020/12/20 06:04:39;;;;;;;12.65;7.80;;;10.60;99.90;;;;;;4997363;28;20049;-78
2020/12/20 06:07:07;;;;;;;11.98;7.80;;;10.60;99.90;;;;;;4999340;28;20042;-78
2020/12/20 06:09:49;;;;;;;11.23;7.93;;;10.50;99.90;;;;;;4993835;28;20092;-79
2020/12/20 06:12:19;;;;;;;13.60;7.85;;;10.50;99.90;;;;;;5006050;28;20495;-78
2020/12/20 06:14:46;;;;;;;13.70;8.13;;;10.90;99.90;;;;;;5014866;28;20073;-78
2020/12/20 06:17:20;;;;;;;14.57;8.10;;;10.50;99.90;;;;;;5016756;28;20319;-77
2020/12/20 06:19:49;;;;;;;14.15;8.77;;;10.50;99.90;;;;;;4997693;28;20468;-78
2020/12/20 06:22:34;;;;;;;11.35;8.20;;;10.50;99.90;;;;;;4997813;28;20045;-78
2020/12/20 06:25:06;;;;;;;13.95;8.55;;;10.50;99.90;;;;;;5001190;28;20029;-78
2020/12/20 06:27:33;;;;;;;14.43;8.57;;;10.50;99.90;;;;;;4995680;28;20061;-78
2020/12/20 06:30:06;;;;;;;12.50;8.70;;;10.50;99.90;;;;;;5004919;28;20621;-77
2020/12/20 06:32:41;;;;;;;11.80;8.20;;;10.50;99.90;;;;;;4996209;28;20132;-78
2020/12/20 06:35:14;;;;;;;12.95;8.98;;;10.50;99.90;;;;;;5011178;28;20037;-78
2020/12/20 06:37:42;;;;;;;15.60;8.32;;;10.50;99.90;;;;;;5012489;28;20030;-78
2020/12/20 06:40:09;;;;;;;11.07;8.13;;;10.50;99.90;;;;;;4999354;28;20038;-77
2020/12/20 06:42:40;;;;;;;12.85;8.40;;;12.90;99.90;;;;;;4999130;28;20041;-77
2020/12/20 06:45:16;;;;;;;15.38;9.35;;;10.50;99.90;;;;;;4997267;28;20523;-80
2020/12/20 06:47:50;;;;;;;18.85;10.38;;;10.40;99.90;;;;;;5003919;28;20042;-79
2020/12/20 06:50:41;;;;;;;14.85;9.25;;;10.50;99.90;;;;;;4998940;28;20022;-78
2020/12/20 06:53:08;;;;;;;15.55;9.70;;;10.50;99.90;;;;;;5011212;28;20042;-78
2020/12/20 06:55:35;;;;;;;13.35;9.55;;;10.50;99.90;;;;;;5000707;28;20173;-78
2020/12/20 06:58:03;;;;;;;16.52;10.10;;;10.50;99.90;;;;;;5001751;28;20041;-78
2020/12/20 07:00:40;;;;;;;16.45;9.65;;;10.50;99.90;;;;;;5011690;28;21120;-77
2020/12/20 07:03:06;;;;;;;14.80;10.50;;;10.50;99.90;;;;;;4994995;28;20510;-79
2020/12/20 07:05:39;;;;;;;13.95;9.43;;;10.40;99.90;;;;;;5001327;28;20168;-80
2020/12/20 07:08:06;;;;;;;14.02;9.90;;;10.40;99.90;;;;;;4991181;28;20038;-78
2020/12/20 07:10:43;;;;;;;19.80;10.00;;;11.80;99.90;;;;;;5002404;28;20045;-78
2020/12/20 07:13:10;;;;;;;17.90;10.75;;;10.40;99.90;;;;;;5010261;28;20092;-79
2020/12/20 07:15:50;;;;;;;16.05;10.18;;;10.30;99.90;;;;;;5000824;28;20036;-79
2020/12/20 07:18:42;;;;;;;17.98;10.18;;;10.30;99.90;;;;;;5011710;28;20068;-77
2020/12/20 07:21:28;;;;;;;17.42;10.73;;;10.30;99.90;;;;;;4994861;28;20476;-81
2020/12/20 07:24:16;;;;;;;16.23;10.63;;;10.20;99.90;;;;;;4997803;28;20034;-79
2020/12/20 07:26:44;;;;;;;15.93;11.50;;;10.30;99.90;;;;;;5009100;28;20064;-78
2020/12/20 07:29:10;;;;;;;17.75;10.68;;;10.30;99.90;;;;;;5010651;28;20450;-78
2020/12/20 07:31:36;;;;;;;17.38;10.88;;;10.20;99.90;;;;;;5009775;28;20038;-79
2020/12/20 07:34:04;;;;;;;19.70;10.50;;;10.30;99.90;;;;;;5024685;28;20041;-79
2020/12/20 07:36:30;;;;;;;19.50;11.75;;;10.30;99.90;;;;;;5000306;28;21372;-79
2020/12/20 07:38:55;;;;;;;20.55;11.57;;;12.20;99.90;;;;;;5007805;28;20072;-78
2020/12/20 07:41:24;;;;;;;19.70;11.32;;;10.30;99.90;;;;;;5014084;28;20030;-81
2020/12/20 07:43:50;;;;;;;18.95;10.65;;;10.30;99.90;;;;;;5017194;28;20929;-80
2020/12/20 07:46:16;;;;;;;17.13;10.68;;;10.40;99.90;;;;;;5019147;28;20037;-80
2020/12/20 07:48:43;;;;;;;17.95;11.52;;;10.40;99.90;;;;;;5014364;28;20041;-81
2020/12/20 07:51:20;;;;;;;16.98;11.02;;;10.30;99.90;;;;;;5028998;28;20042;-80
2020/12/20 07:53:56;;;;;;;15.45;10.90;;;10.30;99.90;;;;;;5013489;28;20042;-82
2020/12/20 07:56:33;;;;;;;16.98;11.05;;;10.30;99.90;;;;;;5013743;28;20399;-80
2020/12/20 07:59:05;;;;;;;16.83;10.50;;;10.30;99.90;;;;;;5015768;28;20034;-81
2020/12/20 08:01:31;;;;;;;15.23;10.95;;;10.40;99.90;;;;;;5011675;28;20042;-80
2020/12/20 08:04:03;;;;;;;19.13;10.98;;;10.40;99.90;;;;;;5014665;28;20053;-81
2020/12/20 08:06:29;;;;;;;16.08;10.30;;;10.40;99.90;;;;;;5012072;28;20091;-80
2020/12/20 08:09:23;;;;;;;18.05;10.63;;;11.10;99.90;;;;;;5014951;28;20110;-80
2020/12/20 08:11:50;;;;;;;17.08;10.63;;;10.40;99.90;;;;;;5013399;28;20526;-80
2020/12/20 08:14:17;;;;;;;16.13;10.55;;;10.50;99.90;;;;;;5009848;28;20084;-82
2020/12/20 08:16:50;;;;;;;17.58;10.93;;;10.40;99.90;;;;;;5024498;28;20054;-78
2020/12/20 08:19:16;;;;;;;15.90;10.73;;;10.50;99.90;;;;;;5015266;28;20042;-77
2020/12/20 08:22:00;;;;;;;17.30;11.43;;;10.50;99.90;;;;;;5007593;28;20030;-77
2020/12/20 08:24:31;;;;;;;17.67;11.50;;;10.40;99.90;;;;;;5008798;28;20045;-80
2020/12/20 08:26:57;;;;;;;;;;;10.40;99.90;;;;;;5014170;28;20045;-82
2020/12/20 08:29:23;;;;;;;17.42;11.60;;;10.40;99.90;;;;;;5017592;28;19975;-78
2020/12/20 08:31:49;;;;;;;17.67;11.65;;;10.40;99.90;;;;;;5010396;28;20033;-80
2020/12/20 08:34:23;;;;;;;20.10;12.35;;;10.50;99.90;;;;;;5011744;28;20044;-80
2020/12/20 08:36:51;;;;;;;18.75;12.25;;;10.50;99.90;;;;;;5029597;28;20415;-78
2020/12/20 08:39:22;;;;;;;21.25;12.65;;;10.40;99.90;;;;;;5011875;28;20146;-80
2020/12/20 08:41:59;;;;;;;24.38;13.77;;;10.40;99.90;;;;;;5003925;28;20121;-79
2020/12/20 08:44:26;;;;;;;16.92;10.93;;;11.50;99.90;;;;;;5003875;28;20083;-80
2020/12/20 08:46:51;;;;;;;19.33;11.57;;;10.40;99.90;;;;;;5017549;28;22165;-77
2020/12/20 08:49:21;;;;;;;16.17;11.15;;;10.50;99.90;;;;;;5001782;28;20054;-78
2020/12/20 08:51:49;;;;;;;16.83;10.60;;;10.50;99.90;;;;;;5012259;28;20038;-78
2020/12/20 08:54:28;;;;;;;17.60;12.45;;;10.50;99.90;;;;;;4998018;28;20039;-78
2020/12/20 08:56:58;;;;;;;19.70;12.15;;;10.90;99.90;;;;;;5012869;28;20033;-78
2020/12/20 08:59:35;;;;;;;21.27;11.77;;;10.50;99.90;;;;;;5001547;28;20045;-78
2020/12/20 09:02:02;;;;;;;19.90;13.00;;;10.60;99.90;;;;;;4998291;28;20096;-78
2020/12/20 09:04:31;;;;;;;22.05;13.68;;;10.60;99.90;;;;;;4999636;28;20046;-77
2020/12/20 09:07:15;;;;;;;20.17;12.68;;;10.60;99.90;;;;;;5013499;28;22416;-76
2020/12/20 09:09:41;;;;;;;17.67;10.63;;;10.60;99.90;;;;;;5003110;28;20041;-78
2020/12/20 09:12:15;;;;;;;16.48;10.93;;;10.60;99.90;;;;;;4997845;28;20053;-77
2020/12/20 09:15:00;;;;;;;17.98;11.05;;;10.70;99.90;;;;;;4999440;28;20062;-78
2020/12/20 09:17:54;;;;;;;19.33;12.20;;;10.70;99.90;;;;;;5015616;28;20435;-79
2020/12/20 09:20:25;;;;;;;20.50;11.95;;;10.70;99.90;;;;;;5009313;28;20089;-77
2020/12/20 09:22:51;;;;;;;;;;;10.70;99.90;;;;;;5006612;28;20033;-79
2020/12/20 09:25:32;;;;;;;17.92;10.80;;;10.60;99.90;;;;;;5031264;28;19917;-79
2020/12/20 09:28:00;;;;;;;18.90;11.10;;;10.70;99.90;;;;;;5022538;28;20038;-79
2020/12/20 09:30:36;;;;;;;15.13;10.55;;;10.70;99.90;;;;;;5014344;28;20045;-78
2020/12/20 09:33:14;;;;;;;17.52;10.52;;;10.80;99.90;;;;;;5001876;28;20033;-78
2020/12/20 09:36:01;;;;;;;15.00;11.30;;;10.80;99.90;;;;;;5009017;28;20030;-79
2020/12/20 09:38:30;;;;;;;16.02;10.35;;;10.80;99.90;;;;;;5013043;28;20547;-78
2020/12/20 09:41:05;;;;;;;17.13;10.43;;;10.90;99.90;;;;;;5011100;28;20106;-79
2020/12/20 09:43:31;;;;;;;18.10;10.77;;;10.90;99.90;;;;;;5004419;28;20041;-79
2020/12/20 09:45:57;;;;;;;17.75;10.80;;;11.80;99.90;;;;;;5005225;28;20029;-81
2020/12/20 09:48:23;;;;;;;16.48;10.35;;;10.90;99.90;;;;;;5003256;28;20442;-78
2020/12/20 09:50:49;;;;;;;36.25;23.58;;;10.90;99.90;;;;;;5005159;28;20090;-78
2020/12/20 09:53:15;;;;;;;18.88;12.43;;;11.10;99.90;;;;;;5002749;28;20033;-78
2020/12/20 09:55:43;;;;;;;15.85;10.00;;;10.90;99.90;;;;;;4998296;28;20039;-78
2020/12/20 09:58:11;;;;;;;18.10;10.68;;;10.80;99.90;;;;;;5015770;28;20110;-77
2020/12/20 10:00:38;;;;;;;19.35;10.48;;;10.90;99.90;;;;;;5016737;28;20085;-77
2020/12/20 10:03:04;;;;;;;17.08;9.90;;;10.90;99.90;;;;;;5000439;28;20038;-79
2020/12/20 10:05:29;;;;;;;15.55;10.27;;;11.00;99.90;;;;;;4998737;28;20034;-77
2020/12/20 10:07:55;;;;;;;14.55;9.73;;;11.00;99.90;;;;;;4984058;28;20042;-79
2020/12/20 10:10:21;;;;;;;17.00;9.32;;;11.00;99.90;;;;;;4998467;28;20064;-79
2020/12/20 10:12:47;;;;;;;18.23;10.02;;;11.00;99.90;;;;;;5001404;28;20048;-79
2020/12/20 10:15:13;;;;;;;17.88;9.50;;;11.10;99.90;;;;;;5013484;28;20125;-78
2020/12/20 10:17:39;;;;;;;15.80;9.75;;;11.10;99.90;;;;;;5000466;28;20040;-80
2020/12/20 10:20:04;;;;;;;17.17;9.90;;;11.30;99.90;;;;;;5005201;28;20417;-78
2020/12/20 10:22:30;;;;;;;16.80;10.20;;;11.10;99.90;;;;;;4985309;28;20038;-78
2020/12/20 10:24:56;;;;;;;17.92;10.35;;;11.20;99.90;;;;;;4996597;28;20054;-79
2020/12/20 10:27:22;;;;;;;16.48;9.95;;;11.20;99.90;;;;;;5003170;28;20549;-81
2020/12/20 10:29:48;;;;;;;16.13;8.98;;;11.20;99.90;;;;;;4988851;28;20042;-79
2020/12/20 10:32:14;;;;;;;13.10;8.55;;;11.90;99.90;;;;;;5001039;28;20037;-78
2020/12/20 10:34:40;;;;;;;16.98;8.00;;;11.40;99.90;;;;;;5000647;28;20134;-77
2020/12/20 10:37:06;;;;;;;11.70;7.82;;;11.40;99.90;;;;;;5000245;28;20484;-77
2020/12/20 10:39:32;;;;;;;18.10;9.63;;;11.50;99.90;;;;;;4999252;28;20050;-77
2020/12/20 10:41:57;;;;;;;15.77;8.43;;;12.70;99.90;;;;;;5005569;28;20049;-77
2020/12/20 10:44:23;;;;;;;11.30;6.97;;;12.00;99.90;;;;;;5010930;28;20061;-78
2020/12/20 10:46:50;;;;;;;12.13;7.50;;;11.50;99.90;;;;;;5002534;28;20042;-78
2020/12/20 10:49:16;;;;;;;13.55;6.93;;;11.50;99.90;;;;;;4998143;28;20416;-83
2020/12/20 10:51:42;;;;;;;15.25;7.13;;;11.40;99.90;;;;;;5011086;28;20128;-78
2020/12/20 10:54:08;;;;;;;12.50;6.35;;;11.50;99.90;;;;;;4997660;28;20646;-79
2020/12/20 10:56:33;;;;;;;10.98;6.07;;;11.60;99.90;;;;;;5010254;28;20399;-83
2020/12/20 10:59:01;;;;;;;10.07;6.18;;;11.50;99.90;;;;;;4990187;28;20037;-78
2020/12/20 11:01:26;;;;;;;12.25;6.53;;;10.40;99.90;;;;;;4994992;28;20089;-79
2020/12/20 11:03:52;;;;;;;10.95;6.18;;;11.70;99.90;;;;;;5004091;28;20042;-81
2020/12/20 11:06:23;;;;;;;13.00;6.63;;;12.50;99.90;;;;;;4993183;28;20042;-80
2020/12/20 11:08:50;;;;;;;11.32;5.18;;;11.40;99.90;;;;;;5000867;28;20045;-80
2020/12/20 11:11:17;;;;;;;8.75;4.88;;;11.40;99.90;;;;;;5010930;28;20038;-80
2020/12/20 11:13:44;;;;;;;9.95;4.80;;;11.30;99.90;;;;;;4994613;28;20033;-78
2020/12/20 11:16:17;;;;;;;11.23;4.50;;;11.20;99.90;;;;;;5000194;28;20131;-78
2020/12/20 11:18:45;;;;;;;9.02;5.00;;;11.20;99.90;;;;;;4999431;28;20477;-80
2020/12/20 11:21:15;;;;;;;11.00;5.55;;;11.40;99.90;;;;;;5003238;28;20040;-78
2020/12/20 11:23:42;;;;;;;12.03;5.50;;;11.40;99.90;;;;;;4998126;28;20048;-77
2020/12/20 11:26:18;;;;;;;11.07;5.47;;;11.50;99.90;;;;;;4994039;28;20128;-78
2020/12/20 11:28:45;;;;;;;9.43;5.60;;;11.50;99.90;;;;;;4994137;28;20068;-78
2020/12/20 11:31:16;;;;;;;9.52;4.88;;;11.50;99.90;;;;;;5011096;28;20038;-77
2020/12/20 11:33:41;;;;;;;;;;;11.70;99.90;;;;;;4998013;28;20556;-78
2020/12/20 11:36:08;;;;;;;7.93;4.18;;;12.10;99.90;;;;;;4997635;28;20009;-78
2020/12/20 11:38:34;;;;;;;9.80;4.90;;;12.40;99.90;;;;;;4997179;28;20066;-77
2020/12/20 11:41:04;;;;;;;11.73;4.28;;;11.60;99.90;;;;;;4998558;28;20340;-79
2020/12/20 11:43:30;;;;;;;9.97;4.70;;;11.50;99.90;;;;;;4998695;28;20567;-77
2020/12/20 11:45:56;;;;;;;10.02;4.30;;;12.10;99.90;;;;;;4999368;28;20050;-78
2020/12/20 11:48:22;;;;;;;8.82;4.28;;;11.50;99.90;;;;;;5013250;28;20064;-79
2020/12/20 11:50:47;;;;;;;8.45;4.55;;;11.50;99.90;;;;;;4997958;28;20050;-79
2020/12/20 11:53:13;;;;;;;10.02;4.32;;;11.50;99.90;;;;;;4996632;28;20559;-78
2020/12/20 11:55:40;;;;;;;9.02;3.95;;;11.50;99.90;;;;;;5002974;28;20550;-81
2020/12/20 11:58:11;;;;;;;7.68;3.63;;;11.40;99.90;;;;;;5012767;28;20085;-79
2020/12/20 12:00:41;;;;;;;8.63;3.70;;;11.30;99.90;;;;;;5000481;28;20017;-79
2020/12/20 12:03:08;;;;;;;8.80;4.03;;;11.30;99.90;;;;;;4998401;28;20054;-80
2020/12/20 12:05:37;;;;;;;9.43;4.65;;;11.90;99.90;;;;;;4998051;28;20029;-78
2020/12/20 12:08:05;;;;;;;9.25;3.70;;;11.40;99.90;;;;;;4992210;28;20046;-78
2020/12/20 12:10:33;;;;;;;11.45;4.25;;;11.40;99.90;;;;;;5002931;28;20034;-79
2020/12/20 12:13:03;;;;;;;9.63;3.97;;;11.40;99.90;;;;;;5004380;28;20048;-79
2020/12/20 12:15:31;;;;;;;9.65;3.67;;;11.40;99.90;;;;;;5001273;28;20046;-81
2020/12/20 12:17:57;;;;;;;9.73;3.83;;;11.40;99.90;;;;;;4998326;28;20034;-81
2020/12/20 12:20:22;;;;;;;7.25;3.40;;;11.40;99.90;;;;;;5000326;28;20038;-78
2020/12/20 12:22:48;;;;;;;9.20;3.53;;;11.40;99.90;;;;;;4999621;28;20037;-78
2020/12/20 12:25:14;;;;;;;7.07;3.08;;;11.50;99.90;;;;;;5001436;28;20805;-78
2020/12/20 12:27:40;;;;;;;7.22;3.60;;;11.50;99.90;;;;;;5001481;28;20125;-80
2020/12/20 12:30:06;;;;;;;11.80;3.92;;;11.50;99.90;;;;;;4981290;28;20100;-80
2020/12/20 12:32:32;;;;;;;11.63;3.80;;;11.40;99.90;;;;;;4996242;28;20053;-79
2020/12/20 12:34:58;;;;;;;8.65;3.65;;;12.50;99.90;;;;;;5000151;28;20053;-84
2020/12/20 12:37:24;;;;;;;9.60;3.47;;;11.50;99.90;;;;;;5000465;28;20034;-79
2020/12/20 12:39:50;;;;;;;6.57;3.15;;;11.50;99.90;;;;;;4998650;28;20089;-79
2020/12/20 12:42:16;;;;;;;5.45;2.28;;;11.50;99.90;;;;;;5002386;28;20442;-78
2020/12/20 12:44:42;;;;;;;5.63;2.40;;;11.50;99.70;;;;;;4995569;28;20096;-78